Time;durP1;ratioP1;P1;durP2;ratioP2;P2;SDS_P1;SDS_P2;PMS_P1;PMS_P2;Temp;Humidity;BMP_temperature;BMP_pressure;BME280_temperature;BME280_humidity;BME280_pressure;Samples;Min_cycle;Max_cycle;Signal;HPM_P1;HPM_P2
2024/04/24 00:00:03;;;;;;;5.75;3.15;;;;;;;7.96;44.46;99493.22;4479431;26;20073;-68
2024/04/24 00:02:04;;;;;;;6.40;3.38;;;;;;;7.97;44.79;99494.88;4447848;26;20008;-68
2024/04/24 00:04:04;;;;;;;7.35;3.45;;;;;;;7.85;45.27;99500.50;4478527;26;19996;-69
2024/04/24 00:06:05;;;;;;;6.97;3.47;;;;;;;7.78;45.87;99502.88;4478675;26;19999;-69
2024/04/24 00:08:05;;;;;;;5.78;3.33;;;;;;;7.85;45.41;99504.00;4478670;26;20339;-69
2024/04/24 00:10:06;;;;;;;7.45;3.58;;;;;;;7.76;46.03;99491.53;4478910;26;20006;-68
2024/04/24 00:12:07;;;;;;;6.75;4.00;;;;;;;7.62;46.26;99485.66;4479055;26;19999;-68
2024/04/24 00:14:07;;;;;;;6.35;3.83;;;;;;;7.56;46.64;99488.88;4477756;26;19995;-69
2024/04/24 00:16:08;;;;;;;6.72;4.20;;;;;;;7.54;46.86;99482.88;4484127;26;19996;-68
2024/04/24 00:18:08;;;;;;;8.70;3.83;;;;;;;7.48;47.41;99473.63;4460521;26;20016;-68
2024/04/24 00:20:09;;;;;;;6.27;3.53;;;;;;;7.28;48.03;99475.41;4491795;26;20019;-69
2024/04/24 00:22:10;;;;;;;6.13;3.95;;;;;;;7.25;48.66;99477.50;4492877;26;20283;-68
2024/04/24 00:24:15;;;;;;;6.45;3.45;;;;;;;7.27;48.65;99473.75;4486250;26;19999;-69
2024/04/24 00:26:16;;;;;;;5.57;3.40;;;;;;;7.23;48.86;99482.09;4478863;26;20581;-69
2024/04/24 00:28:16;;;;;;;8.30;3.47;;;;;;;7.20;49.07;99477.06;4447512;26;19997;-68
2024/04/24 00:30:17;;;;;;;6.40;3.67;;;;;;;7.14;49.46;99468.66;4478198;26;20711;-69
2024/04/24 00:32:17;;;;;;;7.20;3.28;;;;;;;7.13;49.66;99474.94;4447060;26;20714;-68
2024/04/24 00:34:18;;;;;;;6.78;3.75;;;;;;;7.41;48.68;99471.63;4477649;26;20464;-68
2024/04/24 00:36:18;;;;;;;7.40;4.10;;;;;;;7.14;49.60;99465.16;4478100;26;20004;-68
2024/04/24 00:38:19;;;;;;;6.40;3.87;;;;;;;6.93;50.31;99463.44;4478244;26;20072;-68
2024/04/24 00:40:19;;;;;;;7.57;3.90;;;;;;;6.80;51.01;99465.50;4476740;26;20839;-68
2024/04/24 00:42:20;;;;;;;6.53;3.30;;;;;;;6.83;50.98;99458.09;4478473;26;20039;-68
2024/04/24 00:44:21;;;;;;;10.35;3.90;;;;;;;6.85;50.95;99460.63;4446415;26;20763;-68
2024/04/24 00:46:23;;;;;;;6.15;3.45;;;;;;;6.94;50.85;99462.47;4478440;26;20443;-69
2024/04/24 00:48:25;;;;;;;6.10;3.33;;;;;;;6.87;50.95;99458.66;4478958;26;20336;-68
2024/04/24 00:50:27;;;;;;;7.28;3.55;;;;;;;6.93;50.63;99462.59;4476676;26;20765;-68
2024/04/24 00:52:27;;;;;;;;;;;;;;;7.25;50.63;99454.41;4477796;26;19999;-68
2024/04/24 00:54:28;;;;;;;4.90;2.83;;;;;;;7.21;49.75;99439.72;4478120;26;20455;-68
2024/04/24 00:56:29;;;;;;;6.97;3.50;;;;;;;7.14;50.06;99459.84;4478604;26;20007;-68
2024/04/24 00:58:30;;;;;;;6.28;3.78;;;;;;;7.05;50.40;99455.34;4478788;26;20441;-67
2024/04/24 01:00:31;;;;;;;;;;;;;;;7.18;50.92;99450.59;4478868;26;20003;-68
2024/04/24 01:02:31;;;;;;;6.10;3.60;;;;;;;7.25;49.84;99448.25;4478069;26;20293;-68
2024/04/24 01:04:32;;;;;;;7.05;3.38;;;;;;;7.42;49.40;99441.41;4478710;26;20028;-68
2024/04/24 01:06:33;;;;;;;5.63;2.83;;;;;;;7.42;49.28;99436.91;4479573;26;20011;-68
2024/04/24 01:08:33;;;;;;;5.72;3.35;;;;;;;7.29;49.29;99441.69;4480336;26;20072;-68
2024/04/24 01:10:34;;;;;;;5.97;3.40;;;;;;;7.34;48.87;99434.97;4481392;26;20723;-68
2024/04/24 01:12:34;;;;;;;8.03;3.80;;;;;;;7.29;49.14;99434.53;4480125;26;20269;-67
2024/04/24 01:14:35;;;;;;;6.20;3.05;;;;;;;7.43;48.86;99430.63;4482156;26;19999;-68
2024/04/24 01:16:40;;;;;;;12.13;3.20;;;;;;;7.57;48.25;99423.22;4488413;26;20002;-68
2024/04/24 01:18:48;;;;;;;6.30;3.38;;;;;;;7.61;48.01;99430.78;4479892;26;20024;-68
2024/04/24 01:20:51;;;;;;;4.57;2.60;;;;;;;7.67;47.96;99417.88;4477721;26;19999;-68
2024/04/24 01:23:06;;;;;;;6.22;2.90;;;;;;;7.63;47.76;99418.19;4477236;26;19995;-68
2024/04/24 01:25:23;;;;;;;6.72;3.38;;;;;;;7.36;47.95;99418.88;4478528;26;19995;-68
2024/04/24 01:27:24;;;;;;;6.43;3.47;;;;;;;7.30;48.08;99425.59;4477971;26;20436;-68
2024/04/24 01:29:24;;;;;;;6.47;3.42;;;;;;;7.38;47.94;99421.38;4477375;26;20014;-68
2024/04/24 01:31:25;;;;;;;8.53;3.57;;;;;;;7.40;47.83;99422.94;4477780;26;20004;-68
2024/04/24 01:33:25;;;;;;;5.90;2.97;;;;;;;7.37;47.65;99427.72;4477361;26;20225;-68
2024/04/24 01:35:26;;;;;;;6.32;3.30;;;;;;;7.40;47.43;99427.41;4477447;26;20375;-68
2024/04/24 01:37:26;;;;;;;5.72;2.90;;;;;;;7.37;47.60;99423.22;4477844;26;20463;-68
2024/04/24 01:39:27;;;;;;;5.93;3.13;;;;;;;7.39;47.31;99428.38;4476896;26;19996;-68
2024/04/24 01:41:28;;;;;;;5.90;3.13;;;;;;;7.39;47.55;99423.91;4482396;26;20659;-68
2024/04/24 01:43:29;;;;;;;6.70;3.53;;;;;;;7.34;47.76;99418.16;4480720;26;20254;-68
2024/04/24 01:45:29;;;;;;;6.15;2.97;;;;;;;7.26;48.35;99423.34;4483401;26;20000;-68
2024/04/24 01:47:29;;;;;;;7.47;3.70;;;;;;;7.19;48.42;99420.38;4486009;26;20007;-69
2024/04/24 01:49:30;;;;;;;6.10;3.35;;;;;;;7.12;48.72;99419.28;4471769;26;20022;-68
2024/04/24 01:51:30;;;;;;;6.32;3.65;;;;;;;7.03;49.25;99411.16;4465666;26;20005;-68
2024/04/24 01:53:31;;;;;;;6.25;3.63;;;;;;;6.97;49.52;99419.69;4480138;26;20015;-68
2024/04/24 01:55:31;;;;;;;5.75;3.28;;;;;;;6.83;50.21;99414.75;4484662;26;20054;-68
2024/04/24 01:57:32;;;;;;;8.70;3.80;;;;;;;6.94;50.12;99411.97;4484901;26;20044;-68
2024/04/24 01:59:32;;;;;;;6.33;3.03;;;;;;;6.96;50.01;99409.16;4477374;26;20424;-68
2024/04/24 02:01:32;;;;;;;5.53;3.30;;;;;;;6.78;50.70;99417.81;4477606;26;20512;-67
2024/04/24 02:03:33;;;;;;;6.47;3.73;;;;;;;6.69;51.32;99402.69;4476977;26;20015;-68
2024/04/24 02:05:34;;;;;;;6.87;4.10;;;;;;;6.71;51.28;99406.88;4476030;26;20229;-68
2024/04/24 02:07:34;;;;;;;6.82;3.45;;;;;;;6.66;51.44;99402.97;4478183;26;20014;-68
2024/04/24 02:09:34;;;;;;;5.70;3.07;;;;;;;6.71;51.51;99406.03;4477544;26;20448;-68
2024/04/24 02:11:35;;;;;;;6.23;3.80;;;;;;;6.70;51.57;99402.56;4477102;26;20389;-68
2024/04/24 02:13:35;;;;;;;5.17;3.20;;;;;;;6.67;51.43;99401.97;4476950;26;20225;-69
2024/04/24 02:15:36;;;;;;;5.90;3.10;;;;;;;6.61;51.60;99400.72;4445468;26;20648;-68
2024/04/24 02:17:36;;;;;;;6.22;3.10;;;;;;;6.56;51.66;99398.44;4477430;26;19999;-68
2024/04/24 02:19:37;;;;;;;6.20;3.75;;;;;;;6.48;52.02;99394.78;4475811;26;20011;-68
2024/04/24 02:21:37;;;;;;;9.77;3.72;;;;;;;6.42;52.43;99390.84;4477586;26;20044;-68
2024/04/24 02:23:38;;;;;;;6.47;3.47;;;;;;;6.54;51.90;99394.25;4479693;26;20004;-68
2024/04/24 02:25:39;;;;;;;;;;;;;;;6.38;53.30;99389.44;4478084;26;20018;-68
2024/04/24 02:27:39;;;;;;;8.13;3.97;;;;;;;6.39;52.50;99391.97;4477165;26;19925;-68
2024/04/24 02:29:39;;;;;;;5.40;3.55;;;;;;;6.35;52.73;99392.38;4477309;26;19996;-68
2024/04/24 02:31:40;;;;;;;6.33;3.43;;;;;;;6.30;52.75;99390.13;4477522;26;20374;-68
2024/04/24 02:33:40;;;;;;;7.93;3.95;;;;;;;6.46;52.32;99386.97;4445819;26;21076;-68
2024/04/24 02:35:41;;;;;;;7.65;3.85;;;;;;;6.36;52.66;99389.56;4477465;26;20166;-68
2024/04/24 02:37:41;;;;;;;7.60;3.60;;;;;;;6.32;52.53;99382.88;4477721;26;19995;-68
2024/04/24 02:39:42;;;;;;;6.23;3.27;;;;;;;6.40;52.18;99383.03;4446608;26;20668;-68
2024/04/24 02:41:42;;;;;;;6.65;3.83;;;;;;;6.39;52.38;99380.50;4477007;26;20014;-68
2024/04/24 02:43:42;;;;;;;5.60;2.93;;;;;;;6.52;52.09;99380.25;4476501;26;20006;-68
2024/04/24 02:45:43;;;;;;;6.07;3.20;;;;;;;6.57;51.79;99378.03;4479969;26;20011;-68
2024/04/24 02:47:44;;;;;;;6.25;3.67;;;;;;;6.65;51.72;99367.59;4495988;26;20012;-68
2024/04/24 02:49:44;;;;;;;6.10;3.65;;;;;;;6.51;52.03;99374.13;4487965;26;20008;-68
2024/04/24 02:51:45;;;;;;;6.53;4.33;;;;;;;6.43;52.43;99373.09;4476805;26;20065;-68
2024/04/24 02:53:45;;;;;;;6.95;3.92;;;;;;;6.38;52.40;99368.19;4476792;26;20007;-68
2024/04/24 02:55:46;;;;;;;6.83;3.30;;;;;;;6.46;52.17;99370.19;4476824;26;19991;-68
2024/04/24 02:57:46;;;;;;;8.95;4.10;;;;;;;6.30;52.45;99368.88;4477051;26;20554;-68
2024/04/24 02:59:47;;;;;;;9.23;4.97;;;;;;;6.26;52.61;99369.28;4477182;26;20069;-67
2024/04/24 03:01:47;;;;;;;6.70;4.10;;;;;;;6.24;52.76;99366.75;4484348;26;20003;-67
2024/04/24 03:03:48;;;;;;;7.72;4.00;;;;;;;6.12;53.12;99363.34;4456988;26;20316;-68
2024/04/24 03:05:49;;;;;;;7.60;4.50;;;;;;;6.02;53.49;99368.63;4490211;26;20000;-68
2024/04/24 03:07:49;;;;;;;;;;;;;;;5.95;54.43;99367.44;4490187;26;20357;-68
2024/04/24 03:09:50;;;;;;;8.60;4.43;;;;;;;5.78;54.08;99372.34;4489699;26;19936;-69
2024/04/24 03:11:50;;;;;;;7.43;4.30;;;;;;;5.68;54.29;99371.44;4461915;26;20008;-70
2024/04/24 03:13:50;;;;;;;9.73;4.43;;;;;;;5.63;54.20;99368.34;4491811;26;19999;-68
2024/04/24 03:15:51;;;;;;;6.87;4.40;;;;;;;5.58;54.56;99371.41;4493753;26;19999;-69
2024/04/24 03:17:51;;;;;;;7.87;4.93;;;;;;;5.52;54.87;99363.97;4460740;26;20330;-68
2024/04/24 03:19:52;;;;;;;7.53;4.73;;;;;;;5.53;54.78;99356.84;4486366;26;20225;-69
2024/04/24 03:21:52;;;;;;;11.30;4.03;;;;;;;5.58;54.62;99355.50;4486663;26;19995;-68
2024/04/24 03:23:53;;;;;;;7.60;4.07;;;;;;;5.54;54.75;99350.56;4483807;26;20007;-68
2024/04/24 03:25:53;;;;;;;6.68;4.05;;;;;;;5.69;54.35;99348.44;4480314;26;20014;-68
2024/04/24 03:27:54;;;;;;;7.23;3.90;;;;;;;5.86;53.82;99346.97;4480345;26;20080;-68
2024/04/24 03:29:54;;;;;;;5.40;3.10;;;;;;;5.99;53.51;99338.81;4480203;26;20740;-68
2024/04/24 03:31:54;;;;;;;5.97;3.77;;;;;;;5.88;53.71;99339.72;4479982;26;20221;-68
2024/04/24 03:33:55;;;;;;;6.55;4.03;;;;;;;5.99;53.50;99346.78;4479852;26;20542;-68
2024/04/24 03:35:56;;;;;;;6.30;3.50;;;;;;;6.13;53.08;99329.69;4480718;26;20077;-68
2024/04/24 03:37:56;;;;;;;5.53;3.42;;;;;;;6.18;52.94;99335.44;4446266;26;20246;-68
2024/04/24 03:39:56;;;;;;;5.17;3.07;;;;;;;6.20;52.66;99339.63;4419197;26;20060;-69
2024/04/24 03:41:57;;;;;;;7.13;3.92;;;;;;;6.08;52.97;99330.94;4449905;26;19992;-68
2024/04/24 03:43:57;;;;;;;6.95;3.90;;;;;;;5.97;53.19;99335.47;4418890;26;20158;-68
2024/04/24 03:45:58;;;;;;;6.90;4.33;;;;;;;6.12;52.98;99330.66;4449788;26;20006;-68
2024/04/24 03:47:58;;;;;;;6.68;4.55;;;;;;;6.06;52.80;99330.22;4450027;26;20403;-68
2024/04/24 03:49:58;;;;;;;8.40;4.93;;;;;;;6.00;53.09;99329.94;4450283;26;20003;-68
2024/04/24 03:51:59;;;;;;;8.02;5.40;;;;;;;5.97;53.04;99335.47;4450006;26;20040;-68
2024/04/24 03:53:59;;;;;;;7.75;5.00;;;;;;;5.83;53.49;99336.66;4448701;26;20134;-68
2024/04/24 03:56:00;;;;;;;9.48;5.60;;;;;;;5.75;53.85;99329.34;4449870;26;20000;-67
2024/04/24 03:58:00;;;;;;;8.52;4.95;;;;;;;5.68;54.09;99336.97;4450116;26;20000;-68
2024/04/24 04:00:01;;;;;;;8.90;5.10;;;;;;;5.55;54.40;99331.03;4449814;26;20011;-68
2024/04/24 04:02:01;;;;;;;9.10;4.80;;;;;;;5.43;54.93;99336.41;4449711;26;20265;-68
2024/04/24 04:04:02;;;;;;;9.18;5.30;;;;;;;5.35;55.22;99344.16;4446142;26;20230;-68
2024/04/24 04:06:03;;;;;;;8.70;5.70;;;;;;;5.20;55.59;99334.81;4448506;26;20003;-68
2024/04/24 04:08:04;;;;;;;7.78;4.78;;;;;;;5.10;55.74;99335.59;4449268;26;20011;-68
2024/04/24 04:10:06;;;;;;;9.80;6.10;;;;;;;5.00;55.96;99340.81;4449610;26;19999;-68
2024/04/24 04:12:07;;;;;;;9.05;5.60;;;;;;;4.97;56.05;99340.25;4450147;26;20015;-68
2024/04/24 04:14:07;;;;;;;8.27;5.18;;;;;;;4.99;55.91;99348.91;4418888;26;20441;-68
2024/04/24 04:16:07;;;;;;;9.53;6.40;;;;;;;4.93;56.12;99334.34;4449862;26;20055;-68
2024/04/24 04:18:08;;;;;;;10.48;6.13;;;;;;;4.89;56.07;99345.31;4450796;26;20529;-68
2024/04/24 04:20:08;;;;;;;10.53;5.97;;;;;;;4.84;56.10;99345.69;4456827;26;19992;-68
2024/04/24 04:22:09;;;;;;;8.25;5.43;;;;;;;4.77;56.33;99340.06;4452736;26;20234;-68
2024/04/24 04:24:09;;;;;;;9.47;5.70;;;;;;;4.72;56.53;99338.75;4448837;26;20011;-68
2024/04/24 04:26:10;;;;;;;9.23;5.97;;;;;;;4.70;56.41;99336.22;4448947;26;20222;-68
2024/04/24 04:28:10;;;;;;;9.53;6.00;;;;;;;4.65;56.91;99331.31;4449619;26;20398;-67
2024/04/24 04:30:11;;;;;;;10.55;6.65;;;;;;;4.68;56.49;99336.34;4449828;26;20099;-67
2024/04/24 04:32:11;;;;;;;11.77;6.50;;;;;;;4.73;56.50;99330.66;4449834;26;20008;-67
2024/04/24 04:34:12;;;;;;;9.48;6.80;;;;;;;4.83;56.47;99328.94;4448960;26;20014;-68
2024/04/24 04:36:12;;;;;;;8.87;5.97;;;;;;;5.08;55.94;99324.31;4448950;26;20012;-67
2024/04/24 04:38:13;;;;;;;11.00;6.38;;;;;;;5.04;56.06;99312.25;4455596;26;20003;-68
2024/04/24 04:40:13;;;;;;;11.77;7.00;;;;;;;5.15;55.91;99317.50;4478393;26;20003;-68
2024/04/24 04:42:14;;;;;;;8.38;6.03;;;;;;;5.29;55.77;99312.88;4478456;26;20000;-68
2024/04/24 04:44:17;;;;;;;8.90;5.43;;;;;;;5.39;55.35;99311.13;4478096;26;20013;-68
2024/04/24 04:46:17;;;;;;;8.60;5.55;;;;;;;5.46;54.90;99309.66;4478923;26;20010;-68
2024/04/24 04:48:18;;;;;;;7.37;4.90;;;;;;;5.46;54.85;99314.09;4478977;26;20003;-68
2024/04/24 04:50:19;;;;;;;10.02;5.63;;;;;;;5.49;54.75;99308.53;4479334;26;21317;-68
2024/04/24 04:52:19;;;;;;;11.60;7.07;;;;;;;5.27;55.58;99314.81;4479295;26;20012;-68
2024/04/24 04:54:20;;;;;;;10.93;6.35;;;;;;;5.11;55.84;99315.25;4483946;26;20500;-67
2024/04/24 04:56:20;;;;;;;12.05;6.75;;;;;;;5.16;55.73;99323.66;4477936;26;20000;-68
2024/04/24 04:58:21;;;;;;;9.18;6.32;;;;;;;5.00;56.06;99324.09;4478345;26;19999;-68
2024/04/24 05:00:21;;;;;;;10.37;6.80;;;;;;;5.12;55.76;99323.06;4478821;26;20000;-68
2024/04/24 05:02:22;;;;;;;10.77;6.88;;;;;;;5.11;55.70;99318.72;4476371;26;20525;-68
2024/04/24 05:04:22;;;;;;;11.63;6.85;;;;;;;5.03;55.93;99312.41;4477855;26;19999;-69
2024/04/24 05:06:22;;;;;;;9.55;6.90;;;;;;;5.01;55.96;99317.81;4478220;26;20003;-69
2024/04/24 05:08:23;;;;;;;9.37;7.00;;;;;;;4.99;56.00;99315.28;4477848;26;20509;-68
2024/04/24 05:10:23;;;;;;;11.93;7.30;;;;;;;4.93;56.35;99309.66;4446888;26;20809;-67
2024/04/24 05:12:24;;;;;;;11.27;6.83;;;;;;;4.92;56.36;99310.63;4477510;26;20010;-68
2024/04/24 05:14:24;;;;;;;9.50;6.90;;;;;;;4.88;56.49;99314.50;4477520;26;20012;-67
2024/04/24 05:16:24;;;;;;;12.27;6.87;;;;;;;5.04;56.07;99309.63;4478248;26;20213;-68
2024/04/24 05:18:25;;;;;;;9.63;6.17;;;;;;;5.11;55.94;99309.94;4447278;26;20050;-68
2024/04/24 05:20:25;;;;;;;16.67;6.70;;;;;;;5.07;56.05;99317.31;4477406;26;20010;-68
2024/04/24 05:22:33;;;;;;;8.23;5.97;;;;;;;5.08;56.17;99313.72;4477376;26;20007;-67
2024/04/24 05:24:33;;;;;;;12.43;6.88;;;;;;;5.09;56.15;99310.09;4477768;26;20023;-68
2024/04/24 05:29:10;;;;;;;12.80;6.60;;;;;;;5.08;56.25;99315.50;4478129;26;20351;-67
2024/04/24 05:31:10;;;;;;;13.93;7.28;;;;;;;5.25;55.94;99314.09;4477769;26;20027;-68
2024/04/24 05:33:11;;;;;;;15.05;6.72;;;;;;;5.36;55.55;99319.34;4477470;26;20003;-67
2024/04/24 05:35:11;;;;;;;9.52;6.50;;;;;;;5.46;55.30;99314.94;4478126;26;20014;-67
2024/04/24 05:37:12;;;;;;;9.30;6.35;;;;;;;5.57;54.96;99311.38;4478159;26;19999;-68
2024/04/24 05:39:12;;;;;;;14.57;7.18;;;;;;;5.72;54.64;99308.38;4446491;26;20396;-68
2024/04/24 05:41:13;;;;;;;8.68;6.28;;;;;;;5.85;54.34;99308.19;4477715;26;20039;-68
2024/04/24 05:43:13;;;;;;;12.07;6.40;;;;;;;5.87;54.33;99308.88;4477030;26;20017;-67
2024/04/24 05:45:13;;;;;;;12.23;6.77;;;;;;;5.77;54.33;99306.19;4477398;26;20292;-68
2024/04/24 05:47:14;;;;;;;11.43;7.13;;;;;;;5.96;53.70;99307.25;4477924;26;20443;-68
2024/04/24 05:49:15;;;;;;;11.35;6.70;;;;;;;6.07;53.63;99315.97;4447937;26;20020;-68
2024/04/24 05:51:16;;;;;;;11.82;6.47;;;;;;;6.19;53.63;99316.72;4484347;26;20004;-67
2024/04/24 05:53:17;;;;;;;10.20;6.47;;;;;;;6.14;53.78;99318.94;4457789;26;20030;-69
2024/04/24 05:55:18;;;;;;;9.27;6.00;;;;;;;6.13;53.88;99313.78;4448197;26;19996;-68
2024/04/24 05:57:22;;;;;;;11.82;6.68;;;;;;;5.90;54.39;99309.44;4485094;26;19999;-68
2024/04/24 05:59:23;;;;;;;11.27;6.70;;;;;;;5.92;54.27;99306.66;4455886;26;20919;-68
2024/04/24 06:01:23;;;;;;;17.37;6.73;;;;;;;5.90;54.18;99313.91;4487372;26;19999;-69
2024/04/24 06:03:24;;;;;;;9.35;6.05;;;;;;;5.94;54.29;99313.50;4487227;26;20701;-68
2024/04/24 06:05:24;;;;;;;12.33;6.50;;;;;;;6.05;54.13;99309.94;4478081;26;20068;-68
2024/04/24 06:07:24;;;;;;;10.67;6.07;;;;;;;6.01;54.00;99305.91;4478019;26;20221;-68
2024/04/24 06:09:25;;;;;;;10.10;5.57;;;;;;;6.08;54.08;99308.88;4487120;26;20265;-68
2024/04/24 06:11:25;;;;;;;10.88;5.80;;;;;;;6.14;53.91;99300.38;4490640;26;20066;-68
2024/04/24 06:13:26;;;;;;;11.85;6.53;;;;;;;6.17;53.83;99309.84;4490051;26;20066;-68
2024/04/24 06:15:28;;;;;;;15.52;6.55;;;;;;;6.07;54.02;99302.69;4459973;26;20175;-70
2024/04/24 06:17:28;;;;;;;11.18;6.05;;;;;;;6.11;54.20;99297.13;4460406;26;20000;-71
2024/04/24 06:19:29;;;;;;;10.57;6.07;;;;;;;6.12;54.15;99299.66;4490915;26;20007;-70
2024/04/24 06:21:29;;;;;;;15.73;6.53;;;;;;;6.13;54.26;99303.16;4477638;26;20546;-67
2024/04/24 06:23:29;;;;;;;12.65;6.35;;;;;;;6.25;54.00;99294.09;4476143;26;19995;-68
2024/04/24 06:25:30;;;;;;;13.90;6.97;;;;;;;6.34;53.89;99295.94;4476313;26;20435;-68
2024/04/24 06:27:30;;;;;;;9.57;6.23;;;;;;;6.58;53.34;99297.41;4446303;26;20263;-68
2024/04/24 06:29:31;;;;;;;8.50;5.33;;;;;;;6.75;52.88;99287.91;4477192;26;20281;-68
2024/04/24 06:31:32;;;;;;;20.13;6.55;;;;;;;6.64;53.10;99282.72;4490858;26;20225;-69
2024/04/24 06:33:32;;;;;;;9.68;5.03;;;;;;;6.93;52.58;99284.56;4459330;26;19996;-68
2024/04/24 06:35:34;;;;;;;7.90;4.93;;;;;;;6.89;52.55;99283.16;4476549;26;19999;-69
2024/04/24 06:37:34;;;;;;;8.52;4.70;;;;;;;7.06;52.36;99273.66;4476722;26;19996;-68
2024/04/24 06:39:35;;;;;;;8.65;5.25;;;;;;;7.13;52.26;99277.41;4477613;26;20090;-68
2024/04/24 06:41:35;;;;;;;8.00;5.35;;;;;;;7.18;52.22;99281.31;4479513;26;20405;-68
2024/04/24 06:43:36;;;;;;;7.47;4.95;;;;;;;7.24;52.15;99274.59;4478685;26;20335;-68
2024/04/24 06:45:37;;;;;;;12.47;6.37;;;;;;;7.06;52.76;99276.31;4448151;26;20008;-68
2024/04/24 06:47:37;;;;;;;9.57;6.18;;;;;;;7.17;52.82;99284.97;4479585;26;20225;-68
2024/04/24 06:49:38;;;;;;;8.87;6.30;;;;;;;7.08;52.85;99279.66;4478677;26;20022;-68
2024/04/24 06:51:38;;;;;;;16.95;7.18;;;;;;;7.18;53.03;99281.31;4478845;26;20546;-68
2024/04/24 06:53:39;;;;;;;13.30;6.83;;;;;;;7.28;52.85;99281.31;4478633;26;20007;-68
2024/04/24 06:55:43;;;;;;;11.75;6.50;;;;;;;7.22;53.36;99281.88;4476951;26;20218;-68
2024/04/24 06:57:45;;;;;;;12.40;5.63;;;;;;;7.40;52.67;99283.81;4477981;26;19996;-68
2024/04/24 06:59:45;;;;;;;;;;;;;;;7.49;53.19;99288.25;4479990;26;19999;-68
2024/04/24 07:01:46;;;;;;;11.83;5.90;;;;;;;7.47;52.79;99291.09;4479060;26;20262;-69
2024/04/24 07:03:46;;;;;;;14.23;6.85;;;;;;;7.25;53.49;99289.59;4478075;26;20010;-68
2024/04/24 07:05:46;;;;;;;10.27;6.50;;;;;;;7.31;53.75;99289.00;4478981;26;20524;-68
2024/04/24 07:07:47;;;;;;;14.27;8.02;;;;;;;7.22;54.12;99286.38;4478976;26;19999;-69
2024/04/24 07:09:47;;;;;;;14.18;8.45;;;;;;;6.97;55.35;99294.78;4447741;26;20007;-66
2024/04/24 07:11:48;;;;;;;12.93;9.15;;;;;;;6.93;55.67;99295.19;4478711;26;19999;-68
2024/04/24 07:13:48;;;;;;;12.73;8.70;;;;;;;6.99;55.90;99292.78;4478285;26;20404;-69
2024/04/24 07:15:49;;;;;;;11.80;8.05;;;;;;;7.11;55.68;99282.03;4448084;26;20432;-69
2024/04/24 07:17:51;;;;;;;14.40;8.68;;;;;;;7.12;55.68;99284.56;4479090;26;20014;-69
2024/04/24 07:19:51;;;;;;;12.60;7.53;;;;;;;7.09;55.85;99282.19;4479727;26;20002;-68
2024/04/24 07:21:52;;;;;;;13.90;9.13;;;;;;;6.78;57.01;99278.81;4481041;26;19995;-69
2024/04/24 07:23:52;;;;;;;12.63;9.65;;;;;;;6.74;57.21;99272.09;4492164;26;20011;-68
2024/04/24 07:25:53;;;;;;;12.32;8.57;;;;;;;7.14;56.45;99279.09;4484449;26;20058;-69
2024/04/24 07:27:53;;;;;;;13.05;8.80;;;;;;;7.12;56.67;99276.59;4479668;26;20006;-69
2024/04/24 07:29:54;;;;;;;11.35;8.38;;;;;;;7.12;56.84;99270.41;4478954;26;20044;-68
2024/04/24 07:31:54;;;;;;;11.10;8.10;;;;;;;7.32;56.17;99263.28;4478501;26;19995;-68
2024/04/24 07:33:55;;;;;;;11.70;6.93;;;;;;;7.47;55.48;99260.97;4478534;26;20716;-68
2024/04/24 07:35:56;;;;;;;9.23;6.65;;;;;;;7.64;55.14;99257.59;4478503;26;20058;-68
2024/04/24 07:37:57;;;;;;;11.13;8.25;;;;;;;7.34;56.18;99267.47;4447347;26;19996;-69
2024/04/24 07:39:59;;;;;;;11.43;8.77;;;;;;;7.12;56.83;99273.06;4479381;26;19991;-69
2024/04/24 07:41:59;;;;;;;13.68;9.23;;;;;;;6.69;57.84;99264.56;4479141;26;19995;-69
2024/04/24 07:44:00;;;;;;;11.10;8.65;;;;;;;6.76;57.72;99270.16;4477611;26;20006;-69
2024/04/24 07:46:01;;;;;;;10.68;8.15;;;;;;;7.14;56.80;99271.13;4478234;26;20538;-69
2024/04/24 07:48:01;;;;;;;11.75;8.10;;;;;;;7.10;57.04;99267.91;4447595;26;20128;-69
2024/04/24 07:50:02;;;;;;;10.47;8.23;;;;;;;7.37;56.51;99262.84;4477968;26;20026;-69
2024/04/24 07:52:03;;;;;;;10.90;7.75;;;;;;;7.52;55.89;99261.41;4478576;26;20633;-69
2024/04/24 07:54:04;;;;;;;13.45;8.85;;;;;;;7.40;56.46;99259.88;4478541;26;20085;-70
2024/04/24 07:56:05;;;;;;;14.23;9.05;;;;;;;6.92;57.95;99270.44;4478758;26;20007;-69
2024/04/24 07:58:05;;;;;;;;;;;;;;;7.00;58.49;99269.72;4446820;26;20105;-69
2024/04/24 08:00:06;;;;;;;11.77;8.83;;;;;;;7.19;57.33;99268.84;4478430;26;20289;-68
2024/04/24 08:02:07;;;;;;;13.75;10.25;;;;;;;6.75;59.04;99271.13;4478194;26;19996;-68
2024/04/24 08:04:07;;;;;;;15.00;11.00;;;;;;;6.75;59.22;99273.78;4478942;26;19996;-68
2024/04/24 08:06:08;;;;;;;13.55;10.60;;;;;;;7.09;58.54;99268.03;4478872;26;21057;-69
2024/04/24 08:08:08;;;;;;;17.95;9.93;;;;;;;6.89;59.07;99273.38;4479819;26;20010;-69
2024/04/24 08:10:09;;;;;;;16.25;10.07;;;;;;;7.08;58.80;99264.53;4479360;26;20032;-68
2024/04/24 08:12:10;;;;;;;11.95;9.95;;;;;;;7.25;58.41;99264.81;4479304;26;20008;-69
2024/04/24 08:14:11;;;;;;;9.95;7.65;;;;;;;7.48;57.82;99265.31;4487136;26;20050;-69
2024/04/24 08:16:11;;;;;;;10.80;8.52;;;;;;;7.48;57.94;99254.66;4489148;26;19999;-69
2024/04/24 08:18:11;;;;;;;14.57;10.18;;;;;;;7.05;59.21;99258.69;4450053;26;20003;-69
2024/04/24 08:20:12;;;;;;;15.90;12.02;;;;;;;6.78;60.29;99263.72;4482449;26;20016;-67
2024/04/24 08:22:13;;;;;;;15.18;11.30;;;;;;;6.62;61.70;99266.09;4488810;26;19991;-68
2024/04/24 08:24:14;;;;;;;13.87;11.03;;;;;;;6.55;62.02;99268.44;4484046;26;20069;-68
2024/04/24 08:26:14;;;;;;;17.02;11.98;;;;;;;6.47;62.66;99281.56;4483548;26;20270;-68
2024/04/24 08:28:15;;;;;;;14.07;10.77;;;;;;;6.42;63.42;99279.34;4478288;26;20003;-67
2024/04/24 08:30:15;;;;;;;13.20;10.15;;;;;;;6.59;62.84;99275.19;4478194;26;20744;-68
2024/04/24 08:32:17;;;;;;;15.23;10.63;;;;;;;6.60;62.99;99281.31;4477818;26;20010;-68
2024/04/24 08:34:17;;;;;;;14.63;11.45;;;;;;;6.38;63.92;99281.44;4477524;26;20015;-67
2024/04/24 08:36:18;;;;;;;14.07;11.13;;;;;;;6.22;64.35;99273.16;4447238;26;20484;-68
2024/04/24 08:38:18;;;;;;;13.40;11.10;;;;;;;6.32;64.66;99278.47;4477406;26;20031;-67
2024/04/24 08:40:19;;;;;;;14.80;9.87;;;;;;;6.37;64.71;99279.75;4447153;26;20015;-67
2024/04/24 08:42:20;;;;;;;17.98;12.00;;;;;;;6.54;64.28;99285.34;4477684;26;20000;-67
2024/04/24 08:44:20;;;;;;;16.02;11.68;;;;;;;6.21;64.74;99287.41;4477768;26;20007;-67
2024/04/24 08:46:21;;;;;;;13.80;10.73;;;;;;;6.26;65.27;99287.81;4481405;26;20003;-68
2024/04/24 08:48:21;;;;;;;17.95;12.02;;;;;;;6.35;64.86;99291.47;4492259;26;19999;-67
2024/04/24 08:50:23;;;;;;;17.55;13.00;;;;;;;6.00;65.98;99290.13;4491600;26;20008;-68
2024/04/24 08:52:24;;;;;;;15.27;11.68;;;;;;;6.03;65.80;99285.38;4460158;26;20003;-67
2024/04/24 08:54:25;;;;;;;15.63;12.65;;;;;;;5.96;66.38;99289.50;4462276;26;20007;-67
2024/04/24 08:56:29;;;;;;;14.32;12.07;;;;;;;5.98;66.73;99286.72;4496788;26;20011;-69
2024/04/24 08:58:35;;;;;;;18.70;11.88;;;;;;;6.01;66.63;99303.25;4486320;26;20490;-68
2024/04/24 09:00:37;;;;;;;16.50;12.88;;;;;;;5.92;67.25;99296.06;4476034;26;19995;-69
2024/04/24 09:02:50;;;;;;;14.45;11.07;;;;;;;6.36;66.03;99280.72;4477404;26;20007;-68
2024/04/24 09:04:51;;;;;;;15.95;11.40;;;;;;;6.26;66.05;99282.50;4478348;26;19999;-68
2024/04/24 09:06:51;;;;;;;18.88;12.90;;;;;;;6.04;66.83;99287.06;4481354;26;19999;-68
2024/04/24 09:08:52;;;;;;;17.05;11.82;;;;;;;6.12;66.82;99288.22;4479794;26;19995;-68
2024/04/24 09:10:53;;;;;;;17.52;12.35;;;;;;;6.23;66.64;99280.97;4477497;26;19996;-68
2024/04/24 09:12:54;;;;;;;14.23;11.05;;;;;;;5.78;68.13;99286.66;4477073;26;20046;-68
2024/04/24 09:14:54;;;;;;;16.77;13.00;;;;;;;5.85;68.33;99287.78;4477477;26;19995;-69
2024/04/24 09:16:56;;;;;;;15.70;12.45;;;;;;;5.82;68.36;99285.38;4445968;26;20410;-68
2024/04/24 09:19:03;;;;;;;13.90;11.45;;;;;;;5.91;68.33;99275.81;4477424;26;19999;-68
2024/04/24 09:21:04;;;;;;;13.45;11.50;;;;;;;5.98;68.31;99276.13;4446220;26;19997;-68
2024/04/24 09:23:11;;;;;;;13.07;11.23;;;;;;;5.90;68.66;99282.09;4477079;26;20001;-68
2024/04/24 09:25:12;;;;;;;14.13;11.60;;;;;;;5.82;68.33;99279.25;4477571;26;20081;-69
2024/04/24 09:27:16;;;;;;;15.60;12.68;;;;;;;5.94;68.16;99280.84;4446405;26;20040;-68
2024/04/24 09:29:16;;;;;;;12.48;10.85;;;;;;;6.24;66.85;99284.44;4477692;26;20832;-68
2024/04/24 09:31:17;;;;;;;14.05;11.45;;;;;;;6.22;67.18;99267.84;4477588;26;19995;-68
2024/04/24 09:33:18;;;;;;;16.38;11.82;;;;;;;6.48;66.54;99269.97;4478028;26;20389;-69
2024/04/24 09:35:18;;;;;;;15.23;11.57;;;;;;;6.34;66.85;99263.25;4477609;26;20720;-67